sensor_id;sensor_type;location;lat;lon;timestamp;temperature;humidity
35541;DHT22;21650;48.840;9.162;2022-12-08T00:01:43;1.30;99.90
35541;DHT22;21650;48.840;9.162;2022-12-08T00:04:09;1.30;99.90
35541;DHT22;21650;48.840;9.162;2022-12-08T00:06:37;1.30;99.90
35541;DHT22;21650;48.840;9.162;2022-12-08T00:11:49;1.40;99.90
35541;DHT22;21650;48.840;9.162;2022-12-08T00:14:14;1.50;99.90
35541;DHT22;21650;48.840;9.162;2022-12-08T00:16:40;1.60;99.90
35541;DHT22;21650;48.840;9.162;2022-12-08T00:19:06;1.50;99.90
35541;DHT22;21650;48.840;9.162;2022-12-08T00:21:31;1.60;99.90
35541;DHT22;21650;48.840;9.162;2022-12-08T00:23:57;1.60;99.90
35541;DHT22;21650;48.840;9.162;2022-12-08T00:26:23;1.60;99.90
35541;DHT22;21650;48.840;9.162;2022-12-08T00:28:48;1.60;99.90
35541;DHT22;21650;48.840;9.162;2022-12-08T00:31:14;1.60;99.90
35541;DHT22;21650;48.840;9.162;2022-12-08T00:33:40;1.60;99.90
35541;DHT22;21650;48.840;9.162;2022-12-08T00:36:07;1.60;99.90
35541;DHT22;21650;48.840;9.162;2022-12-08T00:38:35;1.50;99.90
35541;DHT22;21650;48.840;9.162;2022-12-08T00:41:08;1.40;99.90
35541;DHT22;21650;48.840;9.162;2022-12-08T00:43:39;1.40;99.90
35541;DHT22;21650;48.840;9.162;2022-12-08T00:46:05;1.30;99.90
35541;DHT22;21650;48.840;9.162;2022-12-08T00:48:36;1.30;99.90
35541;DHT22;21650;48.840;9.162;2022-12-08T00:51:02;1.20;99.90
35541;DHT22;21650;48.840;9.162;2022-12-08T00:53:31;1.10;99.90
35541;DHT22;21650;48.840;9.162;2022-12-08T00:55:57;1.10;99.90
35541;DHT22;21650;48.840;9.162;2022-12-08T00:58:23;1.10;99.90
35541;DHT22;21650;48.840;9.162;2022-12-08T01:00:49;1.10;99.90
35541;DHT22;21650;48.840;9.162;2022-12-08T01:03:14;1.10;99.90
35541;DHT22;21650;48.840;9.162;2022-12-08T01:05:40;1.10;99.90
35541;DHT22;21650;48.840;9.162;2022-12-08T01:08:07;1.00;99.90
35541;DHT22;21650;48.840;9.162;2022-12-08T01:10:36;1.00;99.90
35541;DHT22;21650;48.840;9.162;2022-12-08T01:13:02;1.00;99.90
35541;DHT22;21650;48.840;9.162;2022-12-08T01:15:31;0.90;99.90
35541;DHT22;21650;48.840;9.162;2022-12-08T01:17:57;0.90;99.90
35541;DHT22;21650;48.840;9.162;2022-12-08T01:20:25;0.80;99.90
35541;DHT22;21650;48.840;9.162;2022-12-08T01:22:53;0.80;99.90
35541;DHT22;21650;48.840;9.162;2022-12-08T01:25:19;0.80;99.90
35541;DHT22;21650;48.840;9.162;2022-12-08T01:27:45;0.70;99.90
35541;DHT22;21650;48.840;9.162;2022-12-08T01:30:13;0.80;99.90
35541;DHT22;21650;48.840;9.162;2022-12-08T01:32:39;0.80;99.90
35541;DHT22;21650;48.840;9.162;2022-12-08T01:35:05;0.80;99.90
35541;DHT22;21650;48.840;9.162;2022-12-08T01:37:31;0.70;99.90
35541;DHT22;21650;48.840;9.162;2022-12-08T01:39:56;0.70;99.90
35541;DHT22;21650;48.840;9.162;2022-12-08T01:42:23;0.70;99.90
35541;DHT22;21650;48.840;9.162;2022-12-08T01:47:20;0.60;99.90
35541;DHT22;21650;48.840;9.162;2022-12-08T01:49:47;0.50;99.90
35541;DHT22;21650;48.840;9.162;2022-12-08T01:52:17;0.50;99.90
35541;DHT22;21650;48.840;9.162;2022-12-08T01:54:54;0.50;99.90
35541;DHT22;21650;48.840;9.162;2022-12-08T01:57:27;0.50;99.90
35541;DHT22;21650;48.840;9.162;2022-12-08T02:00:00;0.50;99.90
35541;DHT22;21650;48.840;9.162;2022-12-08T02:02:31;0.50;99.90
35541;DHT22;21650;48.840;9.162;2022-12-08T02:05:01;0.40;99.90
35541;DHT22;21650;48.840;9.162;2022-12-08T02:07:28;0.40;99.90
35541;DHT22;21650;48.840;9.162;2022-12-08T02:09:55;0.40;99.90
35541;DHT22;21650;48.840;9.162;2022-12-08T02:12:22;0.30;99.90
35541;DHT22;21650;48.840;9.162;2022-12-08T02:14:48;0.30;99.90
35541;DHT22;21650;48.840;9.162;2022-12-08T02:18:03;0.30;99.90
35541;DHT22;21650;48.840;9.162;2022-12-08T02:20:46;0.30;99.90
35541;DHT22;21650;48.840;9.162;2022-12-08T02:23:40;0.30;99.90
35541;DHT22;21650;48.840;9.162;2022-12-08T02:37:56;0.20;99.90
35541;DHT22;21650;48.840;9.162;2022-12-08T02:43:28;0.30;99.90
35541;DHT22;21650;48.840;9.162;2022-12-08T02:46:02;0.30;99.90
35541;DHT22;21650;48.840;9.162;2022-12-08T02:48:32;0.30;99.90
35541;DHT22;21650;48.840;9.162;2022-12-08T02:50:58;0.20;99.90
35541;DHT22;21650;48.840;9.162;2022-12-08T02:53:26;0.20;99.90
35541;DHT22;21650;48.840;9.162;2022-12-08T03:02:21;0.10;99.90
35541;DHT22;21650;48.840;9.162;2022-12-08T03:08:05;0.10;99.90
35541;DHT22;21650;48.840;9.162;2022-12-08T03:10:36;0.10;99.90
35541;DHT22;21650;48.840;9.162;2022-12-08T03:13:22;0.10;99.90
35541;DHT22;21650;48.840;9.162;2022-12-08T03:15:49;0.10;99.90
35541;DHT22;21650;48.840;9.162;2022-12-08T03:18:18;0.10;99.90
35541;DHT22;21650;48.840;9.162;2022-12-08T03:20:48;0.00;99.90
35541;DHT22;21650;48.840;9.162;2022-12-08T03:23:15;-0.10;99.90
35541;DHT22;21650;48.840;9.162;2022-12-08T03:25:53;0.00;99.90
35541;DHT22;21650;48.840;9.162;2022-12-08T03:28:24;0.00;99.90
35541;DHT22;21650;48.840;9.162;2022-12-08T03:30:52;-0.10;99.90
35541;DHT22;21650;48.840;9.162;2022-12-08T03:33:32;-0.10;99.90
35541;DHT22;21650;48.840;9.162;2022-12-08T03:36:03;-0.10;99.90
35541;DHT22;21650;48.840;9.162;2022-12-08T03:38:39;-0.10;99.90
35541;DHT22;21650;48.840;9.162;2022-12-08T03:41:08;-0.10;99.90
35541;DHT22;21650;48.840;9.162;2022-12-08T03:43:47;-0.10;99.90
35541;DHT22;21650;48.840;9.162;2022-12-08T03:46:14;-0.10;99.90
35541;DHT22;21650;48.840;9.162;2022-12-08T03:48:40;-0.20;99.90
35541;DHT22;21650;48.840;9.162;2022-12-08T03:51:06;-0.20;99.90
35541;DHT22;21650;48.840;9.162;2022-12-08T03:53:35;-0.20;99.90
35541;DHT22;21650;48.840;9.162;2022-12-08T03:56:04;-0.10;99.90
35541;DHT22;21650;48.840;9.162;2022-12-08T03:58:30;-0.10;99.90
35541;DHT22;21650;48.840;9.162;2022-12-08T04:00:56;-0.20;99.90
35541;DHT22;21650;48.840;9.162;2022-12-08T04:03:22;-0.20;99.90
35541;DHT22;21650;48.840;9.162;2022-12-08T04:05:51;-0.20;99.90
35541;DHT22;21650;48.840;9.162;2022-12-08T04:08:17;-0.20;99.90
35541;DHT22;21650;48.840;9.162;2022-12-08T04:10:43;-0.20;99.90
35541;DHT22;21650;48.840;9.162;2022-12-08T04:13:09;-0.20;99.90
35541;DHT22;21650;48.840;9.162;2022-12-08T04:15:38;-0.30;99.90
35541;DHT22;21650;48.840;9.162;2022-12-08T04:18:04;-0.20;99.90
35541;DHT22;21650;48.840;9.162;2022-12-08T04:20:39;-0.30;99.90
35541;DHT22;21650;48.840;9.162;2022-12-08T04:23:08;-0.30;99.90
35541;DHT22;21650;48.840;9.162;2022-12-08T04:25:37;-0.30;99.90
35541;DHT22;21650;48.840;9.162;2022-12-08T04:28:04;-0.30;99.90
35541;DHT22;21650;48.840;9.162;2022-12-08T04:30:30;-0.30;99.90
35541;DHT22;21650;48.840;9.162;2022-12-08T04:32:56;-0.30;99.90
35541;DHT22;21650;48.840;9.162;2022-12-08T04:35:22;-0.30;99.90
35541;DHT22;21650;48.840;9.162;2022-12-08T04:37:48;-0.30;99.90
35541;DHT22;21650;48.840;9.162;2022-12-08T04:40:14;-0.40;99.90
35541;DHT22;21650;48.840;9.162;2022-12-08T04:42:40;-0.40;99.90
35541;DHT22;21650;48.840;9.162;2022-12-08T04:45:06;-0.30;99.90
35541;DHT22;21650;48.840;9.162;2022-12-08T04:47:33;-0.30;99.90
35541;DHT22;21650;48.840;9.162;2022-12-08T04:49:59;-0.30;99.90
35541;DHT22;21650;48.840;9.162;2022-12-08T04:52:29;-0.30;99.90
35541;DHT22;21650;48.840;9.162;2022-12-08T04:54:58;-0.30;99.90
35541;DHT22;21650;48.840;9.162;2022-12-08T04:57:29;-0.30;99.90
35541;DHT22;21650;48.840;9.162;2022-12-08T04:59:55;-0.40;99.90
35541;DHT22;21650;48.840;9.162;2022-12-08T05:02:24;-0.30;99.90
35541;DHT22;21650;48.840;9.162;2022-12-08T05:04:51;-0.30;99.90
35541;DHT22;21650;48.840;9.162;2022-12-08T05:07:16;-0.40;99.90
35541;DHT22;21650;48.840;9.162;2022-12-08T05:09:42;-0.40;99.90
35541;DHT22;21650;48.840;9.162;2022-12-08T05:12:08;-0.40;99.90
35541;DHT22;21650;48.840;9.162;2022-12-08T05:14:33;-0.40;99.90
35541;DHT22;21650;48.840;9.162;2022-12-08T05:16:59;-0.50;99.90
35541;DHT22;21650;48.840;9.162;2022-12-08T05:19:24;-0.40;99.90
35541;DHT22;21650;48.840;9.162;2022-12-08T05:21:50;-0.40;99.90
35541;DHT22;21650;48.840;9.162;2022-12-08T05:24:15;-0.50;99.90
35541;DHT22;21650;48.840;9.162;2022-12-08T05:26:41;-0.50;99.90
35541;DHT22;21650;48.840;9.162;2022-12-08T05:29:06;-0.50;99.90
35541;DHT22;21650;48.840;9.162;2022-12-08T05:31:32;-0.50;99.90
35541;DHT22;21650;48.840;9.162;2022-12-08T05:33:58;-0.60;99.90
35541;DHT22;21650;48.840;9.162;2022-12-08T05:36:24;-0.60;99.90
35541;DHT22;21650;48.840;9.162;2022-12-08T05:38:49;-0.60;99.90
35541;DHT22;21650;48.840;9.162;2022-12-08T05:41:17;-0.60;99.90
35541;DHT22;21650;48.840;9.162;2022-12-08T05:43:43;-0.60;99.90
35541;DHT22;21650;48.840;9.162;2022-12-08T05:46:09;-0.60;99.90
35541;DHT22;21650;48.840;9.162;2022-12-08T05:48:36;-0.60;99.90
35541;DHT22;21650;48.840;9.162;2022-12-08T05:51:01;-0.60;99.90
35541;DHT22;21650;48.840;9.162;2022-12-08T05:53:27;-0.60;99.90
35541;DHT22;21650;48.840;9.162;2022-12-08T05:55:53;-0.60;99.90
35541;DHT22;21650;48.840;9.162;2022-12-08T05:58:20;-0.60;99.90
35541;DHT22;21650;48.840;9.162;2022-12-08T06:00:47;-0.60;99.90
35541;DHT22;21650;48.840;9.162;2022-12-08T06:03:15;-0.50;99.90
35541;DHT22;21650;48.840;9.162;2022-12-08T06:05:42;-0.60;99.90
35541;DHT22;21650;48.840;9.162;2022-12-08T06:08:09;-0.60;99.90
35541;DHT22;21650;48.840;9.162;2022-12-08T06:10:37;-0.60;99.90
35541;DHT22;21650;48.840;9.162;2022-12-08T06:13:02;-0.60;99.90
35541;DHT22;21650;48.840;9.162;2022-12-08T06:15:28;-0.60;99.90
35541;DHT22;21650;48.840;9.162;2022-12-08T06:17:53;-0.60;99.90
35541;DHT22;21650;48.840;9.162;2022-12-08T06:20:19;-0.60;99.90
35541;DHT22;21650;48.840;9.162;2022-12-08T06:22:44;-0.60;99.90
35541;DHT22;21650;48.840;9.162;2022-12-08T06:25:10;-0.60;99.90
35541;DHT22;21650;48.840;9.162;2022-12-08T06:27:35;-0.70;99.90
35541;DHT22;21650;48.840;9.162;2022-12-08T06:30:01;-0.60;99.90
35541;DHT22;21650;48.840;9.162;2022-12-08T06:32:26;-0.70;99.90
35541;DHT22;21650;48.840;9.162;2022-12-08T06:34:52;-0.80;99.90
35541;DHT22;21650;48.840;9.162;2022-12-08T06:37:18;-0.70;99.90
35541;DHT22;21650;48.840;9.162;2022-12-08T06:39:43;-0.70;99.90
35541;DHT22;21650;48.840;9.162;2022-12-08T06:42:09;-0.70;99.90
35541;DHT22;21650;48.840;9.162;2022-12-08T06:44:54;-0.70;99.90
35541;DHT22;21650;48.840;9.162;2022-12-08T06:47:20;-0.70;99.90
35541;DHT22;21650;48.840;9.162;2022-12-08T06:49:45;-0.80;99.90
35541;DHT22;21650;48.840;9.162;2022-12-08T06:52:11;-0.80;99.90
35541;DHT22;21650;48.840;9.162;2022-12-08T06:54:36;-0.80;99.90
35541;DHT22;21650;48.840;9.162;2022-12-08T06:57:02;-0.70;99.90
35541;DHT22;21650;48.840;9.162;2022-12-08T06:59:28;-0.80;99.90
35541;DHT22;21650;48.840;9.162;2022-12-08T07:01:54;-0.80;99.90
35541;DHT22;21650;48.840;9.162;2022-12-08T07:04:19;-0.70;99.90
35541;DHT22;21650;48.840;9.162;2022-12-08T07:06:45;-0.70;99.90
35541;DHT22;21650;48.840;9.162;2022-12-08T07:09:11;-0.70;99.90
35541;DHT22;21650;48.840;9.162;2022-12-08T07:11:37;-0.70;99.90
35541;DHT22;21650;48.840;9.162;2022-12-08T07:14:03;-0.70;99.90
35541;DHT22;21650;48.840;9.162;2022-12-08T07:16:28;-0.70;99.90
35541;DHT22;21650;48.840;9.162;2022-12-08T07:18:54;-0.70;99.90
35541;DHT22;21650;48.840;9.162;2022-12-08T07:21:19;-0.70;99.90
35541;DHT22;21650;48.840;9.162;2022-12-08T07:23:46;-0.70;99.90
35541;DHT22;21650;48.840;9.162;2022-12-08T07:26:12;-0.70;99.90
35541;DHT22;21650;48.840;9.162;2022-12-08T07:28:39;-0.70;99.90
35541;DHT22;21650;48.840;9.162;2022-12-08T07:31:07;-0.70;99.90
35541;DHT22;21650;48.840;9.162;2022-12-08T07:33:33;-0.70;99.90
35541;DHT22;21650;48.840;9.162;2022-12-08T07:36:03;-0.70;99.90
35541;DHT22;21650;48.840;9.162;2022-12-08T07:38:30;-0.70;99.90
35541;DHT22;21650;48.840;9.162;2022-12-08T07:40:56;-0.60;99.90
35541;DHT22;21650;48.840;9.162;2022-12-08T07:43:22;-0.60;99.90
35541;DHT22;21650;48.840;9.162;2022-12-08T07:45:48;-0.60;99.90
35541;DHT22;21650;48.840;9.162;2022-12-08T07:48:14;-0.60;99.90
35541;DHT22;21650;48.840;9.162;2022-12-08T07:50:40;-0.60;99.90
35541;DHT22;21650;48.840;9.162;2022-12-08T07:53:06;-0.60;99.90
35541;DHT22;21650;48.840;9.162;2022-12-08T07:55:32;-0.60;99.90
35541;DHT22;21650;48.840;9.162;2022-12-08T07:57:57;-0.60;99.90
35541;DHT22;21650;48.840;9.162;2022-12-08T08:00:23;-0.50;99.90
35541;DHT22;21650;48.840;9.162;2022-12-08T08:02:49;-0.50;99.90
35541;DHT22;21650;48.840;9.162;2022-12-08T08:05:14;-0.40;99.90
35541;DHT22;21650;48.840;9.162;2022-12-08T08:07:41;-0.40;99.90
35541;DHT22;21650;48.840;9.162;2022-12-08T08:10:09;-0.40;99.90
35541;DHT22;21650;48.840;9.162;2022-12-08T08:12:36;-0.30;99.90
35541;DHT22;21650;48.840;9.162;2022-12-08T08:15:04;-0.30;99.90
35541;DHT22;21650;48.840;9.162;2022-12-08T08:17:32;-0.30;99.90
35541;DHT22;21650;48.840;9.162;2022-12-08T08:19:58;-0.30;99.90
35541;DHT22;21650;48.840;9.162;2022-12-08T08:22:25;-0.20;99.90
35541;DHT22;21650;48.840;9.162;2022-12-08T08:24:51;-0.20;99.90
35541;DHT22;21650;48.840;9.162;2022-12-08T08:27:17;-0.10;99.90
35541;DHT22;21650;48.840;9.162;2022-12-08T08:29:42;-0.10;99.90
35541;DHT22;21650;48.840;9.162;2022-12-08T08:32:08;0.00;99.90
35541;DHT22;21650;48.840;9.162;2022-12-08T08:34:33;0.00;99.90
35541;DHT22;21650;48.840;9.162;2022-12-08T08:36:59;0.10;99.90
35541;DHT22;21650;48.840;9.162;2022-12-08T08:39:24;0.10;99.90
35541;DHT22;21650;48.840;9.162;2022-12-08T08:41:50;0.20;99.90
35541;DHT22;21650;48.840;9.162;2022-12-08T08:44:16;0.20;99.90
35541;DHT22;21650;48.840;9.162;2022-12-08T08:46:41;0.30;99.90
35541;DHT22;21650;48.840;9.162;2022-12-08T08:49:07;0.30;99.90
35541;DHT22;21650;48.840;9.162;2022-12-08T08:51:32;0.40;99.90
35541;DHT22;21650;48.840;9.162;2022-12-08T08:53:58;0.40;99.90
35541;DHT22;21650;48.840;9.162;2022-12-08T08:56:24;0.50;99.90
35541;DHT22;21650;48.840;9.162;2022-12-08T08:58:52;0.50;99.90
35541;DHT22;21650;48.840;9.162;2022-12-08T09:01:20;0.60;99.90
35541;DHT22;21650;48.840;9.162;2022-12-08T09:03:47;0.60;99.90
35541;DHT22;21650;48.840;9.162;2022-12-08T09:06:13;0.60;99.90
35541;DHT22;21650;48.840;9.162;2022-12-08T09:08:40;0.70;99.90
35541;DHT22;21650;48.840;9.162;2022-12-08T09:11:06;0.70;99.90
35541;DHT22;21650;48.840;9.162;2022-12-08T09:13:31;0.80;99.90
35541;DHT22;21650;48.840;9.162;2022-12-08T09:16:00;0.80;99.90
35541;DHT22;21650;48.840;9.162;2022-12-08T09:18:26;0.80;99.90
35541;DHT22;21650;48.840;9.162;2022-12-08T09:20:52;0.80;99.90
35541;DHT22;21650;48.840;9.162;2022-12-08T09:23:18;0.90;99.90
35541;DHT22;21650;48.840;9.162;2022-12-08T09:25:43;1.00;99.90
35541;DHT22;21650;48.840;9.162;2022-12-08T09:28:10;1.10;99.90
35541;DHT22;21650;48.840;9.162;2022-12-08T09:30:35;1.10;99.90
35541;DHT22;21650;48.840;9.162;2022-12-08T09:33:01;1.20;99.90
35541;DHT22;21650;48.840;9.162;2022-12-08T09:35:26;1.10;99.90
35541;DHT22;21650;48.840;9.162;2022-12-08T09:37:52;1.20;99.90
35541;DHT22;21650;48.840;9.162;2022-12-08T09:40:19;1.20;99.90
35541;DHT22;21650;48.840;9.162;2022-12-08T09:45:41;1.30;99.90
35541;DHT22;21650;48.840;9.162;2022-12-08T09:48:17;1.40;99.90
35541;DHT22;21650;48.840;9.162;2022-12-08T09:50:51;1.50;99.90
35541;DHT22;21650;48.840;9.162;2022-12-08T09:53:25;1.50;99.90
35541;DHT22;21650;48.840;9.162;2022-12-08T09:55:54;1.60;99.90
35541;DHT22;21650;48.840;9.162;2022-12-08T09:58:34;1.60;99.90
35541;DHT22;21650;48.840;9.162;2022-12-08T10:01:03;1.60;99.90
35541;DHT22;21650;48.840;9.162;2022-12-08T10:03:29;1.60;99.90
35541;DHT22;21650;48.840;9.162;2022-12-08T10:06:06;1.70;99.90
35541;DHT22;21650;48.840;9.162;2022-12-08T10:11:50;1.80;99.90
35541;DHT22;21650;48.840;9.162;2022-12-08T10:14:23;1.80;99.90
35541;DHT22;21650;48.840;9.162;2022-12-08T10:16:57;1.90;99.90
35541;DHT22;21650;48.840;9.162;2022-12-08T10:19:26;1.90;99.90
35541;DHT22;21650;48.840;9.162;2022-12-08T10:21:52;2.00;99.90
35541;DHT22;21650;48.840;9.162;2022-12-08T10:24:25;2.00;99.90
35541;DHT22;21650;48.840;9.162;2022-12-08T10:26:55;2.00;99.90
35541;DHT22;21650;48.840;9.162;2022-12-08T10:29:22;2.00;99.90
35541;DHT22;21650;48.840;9.162;2022-12-08T10:31:47;2.10;99.90
35541;DHT22;21650;48.840;9.162;2022-12-08T10:34:19;2.40;99.90
35541;DHT22;21650;48.840;9.162;2022-12-08T10:36:48;2.40;99.90
35541;DHT22;21650;48.840;9.162;2022-12-08T10:39:37;2.60;99.90
35541;DHT22;21650;48.840;9.162;2022-12-08T10:47:25;2.80;99.90
35541;DHT22;21650;48.840;9.162;2022-12-08T10:52:39;2.90;99.90
35541;DHT22;21650;48.840;9.162;2022-12-08T10:55:19;2.90;99.90
35541;DHT22;21650;48.840;9.162;2022-12-08T10:57:45;3.00;99.90
35541;DHT22;21650;48.840;9.162;2022-12-08T11:00:15;3.00;99.90
35541;DHT22;21650;48.840;9.162;2022-12-08T11:03:19;3.00;99.90
35541;DHT22;21650;48.840;9.162;2022-12-08T11:05:46;3.10;99.90
35541;DHT22;21650;48.840;9.162;2022-12-08T11:08:14;3.10;99.90
35541;DHT22;21650;48.840;9.162;2022-12-08T11:10:44;3.10;99.90
35541;DHT22;21650;48.840;9.162;2022-12-08T11:13:22;3.10;99.90
35541;DHT22;21650;48.840;9.162;2022-12-08T11:15:49;3.10;99.90
35541;DHT22;21650;48.840;9.162;2022-12-08T11:18:26;3.10;99.90
35541;DHT22;21650;48.840;9.162;2022-12-08T11:21:05;3.20;99.90
35541;DHT22;21650;48.840;9.162;2022-12-08T11:23:34;3.20;99.90
35541;DHT22;21650;48.840;9.162;2022-12-08T11:26:05;3.30;99.90
35541;DHT22;21650;48.840;9.162;2022-12-08T11:28:31;3.30;99.90
35541;DHT22;21650;48.840;9.162;2022-12-08T11:31:03;3.30;99.90
35541;DHT22;21650;48.840;9.162;2022-12-08T11:33:31;3.20;99.90
35541;DHT22;21650;48.840;9.162;2022-12-08T11:36:03;3.30;99.90
35541;DHT22;21650;48.840;9.162;2022-12-08T11:38:31;3.30;99.90
35541;DHT22;21650;48.840;9.162;2022-12-08T11:46:35;3.30;99.90
35541;DHT22;21650;48.840;9.162;2022-12-08T11:49:08;3.40;99.90
35541;DHT22;21650;48.840;9.162;2022-12-08T11:51:56;3.40;99.90
35541;DHT22;21650;48.840;9.162;2022-12-08T11:54:31;3.40;99.90
35541;DHT22;21650;48.840;9.162;2022-12-08T11:56:58;3.40;99.90
35541;DHT22;21650;48.840;9.162;2022-12-08T11:59:39;3.50;99.90
35541;DHT22;21650;48.840;9.162;2022-12-08T12:02:24;3.40;99.90
35541;DHT22;21650;48.840;9.162;2022-12-08T12:04:55;3.40;99.90
35541;DHT22;21650;48.840;9.162;2022-12-08T12:20:34;3.50;99.90
35541;DHT22;21650;48.840;9.162;2022-12-08T12:23:05;3.60;99.90
35541;DHT22;21650;48.840;9.162;2022-12-08T12:25:34;3.50;99.90
35541;DHT22;21650;48.840;9.162;2022-12-08T12:28:04;3.60;99.90
35541;DHT22;21650;48.840;9.162;2022-12-08T12:30:59;3.60;99.90
35541;DHT22;21650;48.840;9.162;2022-12-08T12:33:26;3.60;99.90
35541;DHT22;21650;48.840;9.162;2022-12-08T12:35:56;3.70;99.90
35541;DHT22;21650;48.840;9.162;2022-12-08T12:38:28;3.60;99.90
35541;DHT22;21650;48.840;9.162;2022-12-08T12:41:14;3.60;99.90
35541;DHT22;21650;48.840;9.162;2022-12-08T12:52:47;3.70;99.90
35541;DHT22;21650;48.840;9.162;2022-12-08T12:57:21;3.60;99.90
35541;DHT22;21650;48.840;9.162;2022-12-08T13:02:38;3.60;99.90
35541;DHT22;21650;48.840;9.162;2022-12-08T13:05:28;3.60;99.90
35541;DHT22;21650;48.840;9.162;2022-12-08T13:08:01;3.70;99.90
35541;DHT22;21650;48.840;9.162;2022-12-08T13:18:34;3.60;99.90
35541;DHT22;21650;48.840;9.162;2022-12-08T13:21:13;3.50;99.90
35541;DHT22;21650;48.840;9.162;2022-12-08T13:31:37;3.50;99.90
35541;DHT22;21650;48.840;9.162;2022-12-08T13:34:05;3.50;99.90
35541;DHT22;21650;48.840;9.162;2022-12-08T13:36:35;3.50;99.90
35541;DHT22;21650;48.840;9.162;2022-12-08T13:39:03;3.50;99.90
35541;DHT22;21650;48.840;9.162;2022-12-08T13:41:42;3.50;99.90
35541;DHT22;21650;48.840;9.162;2022-12-08T13:44:19;3.50;99.90
35541;DHT22;21650;48.840;9.162;2022-12-08T13:46:50;3.50;99.90
35541;DHT22;21650;48.840;9.162;2022-12-08T13:49:22;3.50;99.90
35541;DHT22;21650;48.840;9.162;2022-12-08T13:51:51;3.50;99.90
35541;DHT22;21650;48.840;9.162;2022-12-08T13:56:47;3.50;99.90
35541;DHT22;21650;48.840;9.162;2022-12-08T13:59:24;3.50;99.90
35541;DHT22;21650;48.840;9.162;2022-12-08T14:01:53;3.50;99.90
35541;DHT22;21650;48.840;9.162;2022-12-08T14:04:20;3.50;99.90
35541;DHT22;21650;48.840;9.162;2022-12-08T14:06:52;3.50;99.90
35541;DHT22;21650;48.840;9.162;2022-12-08T14:09:21;3.50;99.90
35541;DHT22;21650;48.840;9.162;2022-12-08T14:11:54;3.50;99.90
35541;DHT22;21650;48.840;9.162;2022-12-08T14:14:43;3.50;99.90
35541;DHT22;21650;48.840;9.162;2022-12-08T14:17:21;3.50;99.90
35541;DHT22;21650;48.840;9.162;2022-12-08T14:20:19;3.40;99.90
35541;DHT22;21650;48.840;9.162;2022-12-08T14:22:47;3.40;99.90
35541;DHT22;21650;48.840;9.162;2022-12-08T14:25:14;3.40;99.90
35541;DHT22;21650;48.840;9.162;2022-12-08T14:27:41;3.50;99.90
35541;DHT22;21650;48.840;9.162;2022-12-08T14:30:20;3.50;99.90
35541;DHT22;21650;48.840;9.162;2022-12-08T14:32:54;3.50;99.90
35541;DHT22;21650;48.840;9.162;2022-12-08T14:35:34;3.50;99.90
35541;DHT22;21650;48.840;9.162;2022-12-08T14:38:08;3.40;99.90
35541;DHT22;21650;48.840;9.162;2022-12-08T14:40:45;3.40;99.90
35541;DHT22;21650;48.840;9.162;2022-12-08T14:48:23;3.30;99.90
35541;DHT22;21650;48.840;9.162;2022-12-08T14:57:02;3.20;99.90
35541;DHT22;21650;48.840;9.162;2022-12-08T14:59:33;3.20;99.90
35541;DHT22;21650;48.840;9.162;2022-12-08T15:04:43;3.30;99.90
35541;DHT22;21650;48.840;9.162;2022-12-08T15:07:13;3.20;99.90
35541;DHT22;21650;48.840;9.162;2022-12-08T15:17:42;3.20;99.90
35541;DHT22;21650;48.840;9.162;2022-12-08T15:22:52;3.20;99.90
35541;DHT22;21650;48.840;9.162;2022-12-08T15:25:18;3.10;99.90
35541;DHT22;21650;48.840;9.162;2022-12-08T15:27:44;3.10;99.90
35541;DHT22;21650;48.840;9.162;2022-12-08T15:30:14;3.10;99.90
35541;DHT22;21650;48.840;9.162;2022-12-08T15:32:40;3.10;99.90
35541;DHT22;21650;48.840;9.162;2022-12-08T15:35:06;3.10;99.90
35541;DHT22;21650;48.840;9.162;2022-12-08T15:37:32;3.10;99.90
35541;DHT22;21650;48.840;9.162;2022-12-08T15:39:57;3.10;99.90
35541;DHT22;21650;48.840;9.162;2022-12-08T15:42:23;3.10;99.90
35541;DHT22;21650;48.840;9.162;2022-12-08T15:44:49;3.10;99.90
35541;DHT22;21650;48.840;9.162;2022-12-08T15:47:19;3.10;99.90
35541;DHT22;21650;48.840;9.162;2022-12-08T15:49:46;3.10;99.90
35541;DHT22;21650;48.840;9.162;2022-12-08T15:52:18;3.10;99.90
35541;DHT22;21650;48.840;9.162;2022-12-08T15:54:44;3.10;99.90
35541;DHT22;21650;48.840;9.162;2022-12-08T15:59:45;3.00;99.90
35541;DHT22;21650;48.840;9.162;2022-12-08T16:02:12;3.00;99.90
35541;DHT22;21650;48.840;9.162;2022-12-08T16:04:37;3.00;99.90
35541;DHT22;21650;48.840;9.162;2022-12-08T16:07:04;3.00;99.90
35541;DHT22;21650;48.840;9.162;2022-12-08T16:09:35;3.00;99.90
35541;DHT22;21650;48.840;9.162;2022-12-08T16:12:03;3.00;99.90
35541;DHT22;21650;48.840;9.162;2022-12-08T16:14:47;2.90;99.90
35541;DHT22;21650;48.840;9.162;2022-12-08T16:17:13;2.90;99.90
35541;DHT22;21650;48.840;9.162;2022-12-08T16:19:40;3.00;99.90
35541;DHT22;21650;48.840;9.162;2022-12-08T16:22:06;3.00;99.90
35541;DHT22;21650;48.840;9.162;2022-12-08T16:24:31;3.00;99.90
35541;DHT22;21650;48.840;9.162;2022-12-08T16:26:57;2.90;99.90
35541;DHT22;21650;48.840;9.162;2022-12-08T16:29:22;2.90;99.90
35541;DHT22;21650;48.840;9.162;2022-12-08T16:31:48;2.90;99.90
35541;DHT22;21650;48.840;9.162;2022-12-08T16:34:14;2.90;99.90
35541;DHT22;21650;48.840;9.162;2022-12-08T16:36:40;2.90;99.90
35541;DHT22;21650;48.840;9.162;2022-12-08T16:39:06;2.90;99.90
35541;DHT22;21650;48.840;9.162;2022-12-08T16:41:31;2.90;99.90
35541;DHT22;21650;48.840;9.162;2022-12-08T16:44:15;2.90;99.90
35541;DHT22;21650;48.840;9.162;2022-12-08T16:46:41;2.90;99.90
35541;DHT22;21650;48.840;9.162;2022-12-08T16:49:07;2.80;99.90
35541;DHT22;21650;48.840;9.162;2022-12-08T16:51:33;2.80;99.90
35541;DHT22;21650;48.840;9.162;2022-12-08T16:53:59;2.80;99.90
35541;DHT22;21650;48.840;9.162;2022-12-08T16:56:25;2.80;99.90
35541;DHT22;21650;48.840;9.162;2022-12-08T16:58:51;2.80;99.90
35541;DHT22;21650;48.840;9.162;2022-12-08T17:01:17;2.80;99.90
35541;DHT22;21650;48.840;9.162;2022-12-08T17:03:44;2.80;99.90
35541;DHT22;21650;48.840;9.162;2022-12-08T17:06:17;2.80;99.90
35541;DHT22;21650;48.840;9.162;2022-12-08T17:08:43;2.80;99.90
35541;DHT22;21650;48.840;9.162;2022-12-08T17:11:15;2.80;99.90
35541;DHT22;21650;48.840;9.162;2022-12-08T17:13:44;2.80;99.90
35541;DHT22;21650;48.840;9.162;2022-12-08T17:16:11;2.80;99.90
35541;DHT22;21650;48.840;9.162;2022-12-08T17:18:38;2.80;99.90
35541;DHT22;21650;48.840;9.162;2022-12-08T17:21:09;2.80;99.90
35541;DHT22;21650;48.840;9.162;2022-12-08T17:23:35;2.70;99.90
35541;DHT22;21650;48.840;9.162;2022-12-08T17:26:01;2.70;99.90
35541;DHT22;21650;48.840;9.162;2022-12-08T17:28:27;2.70;99.90
35541;DHT22;21650;48.840;9.162;2022-12-08T17:30:53;2.60;99.90
35541;DHT22;21650;48.840;9.162;2022-12-08T17:33:19;2.60;99.90
35541;DHT22;21650;48.840;9.162;2022-12-08T17:35:50;2.60;99.90
35541;DHT22;21650;48.840;9.162;2022-12-08T17:38:16;2.60;99.90
35541;DHT22;21650;48.840;9.162;2022-12-08T17:40:43;2.60;99.90
35541;DHT22;21650;48.840;9.162;2022-12-08T17:43:10;2.70;99.90
35541;DHT22;21650;48.840;9.162;2022-12-08T17:45:43;2.70;99.90
35541;DHT22;21650;48.840;9.162;2022-12-08T17:48:09;2.60;99.90
35541;DHT22;21650;48.840;9.162;2022-12-08T17:50:39;2.60;99.90
35541;DHT22;21650;48.840;9.162;2022-12-08T17:53:05;2.60;99.90